createdAt,value
2022-09-02T00:00:33.623Z,3.50
2022-09-02T00:01:33.618Z,4.00
2022-09-02T00:02:33.698Z,3.50
2022-09-02T00:03:33.654Z,3.10
2022-09-02T00:04:33.605Z,3.10
2022-09-02T00:05:33.583Z,3.20
2022-09-02T00:06:33.557Z,4.40
2022-09-02T00:07:33.581Z,3.00
2022-09-02T00:08:33.506Z,3.40
2022-09-02T00:09:33.565Z,4.10
2022-09-02T00:10:33.657Z,3.10
2022-09-02T00:11:33.493Z,5.80
2022-09-02T00:12:33.474Z,4.10
2022-09-02T00:13:33.458Z,4.10
2022-09-02T00:14:33.483Z,4.60
2022-09-02T00:15:33.448Z,3.80
2022-09-02T00:16:33.634Z,5.40
2022-09-02T00:17:33.446Z,3.40
2022-09-02T00:18:33.398Z,4.60
2022-09-02T00:19:33.412Z,3.00
2022-09-02T00:20:33.365Z,3.80
2022-09-02T00:21:33.356Z,3.10
2022-09-02T00:22:33.346Z,4.10
2022-09-02T00:23:33.354Z,4.50
2022-09-02T00:24:33.316Z,3.60
2022-09-02T00:25:33.307Z,4.00
2022-09-02T00:26:33.314Z,4.50
2022-09-02T00:27:33.280Z,3.70
2022-09-02T00:28:33.256Z,3.90
2022-09-02T00:29:33.276Z,2.90
2022-09-02T00:30:33.239Z,3.70
2022-09-02T00:31:33.296Z,2.90
2022-09-02T00:32:33.196Z,3.20
2022-09-02T00:33:33.202Z,2.70
2022-09-02T00:34:33.195Z,4.50
2022-09-02T00:35:33.218Z,4.60
2022-09-02T00:36:33.156Z,3.10
2022-09-02T00:37:33.147Z,3.80
2022-09-02T00:38:33.128Z,2.70
2022-09-02T00:39:33.125Z,3.50
2022-09-02T00:40:33.190Z,3.10
2022-09-02T00:41:33.147Z,3.10
2022-09-02T00:42:33.089Z,16.30
2022-09-02T00:43:33.067Z,3.40
2022-09-02T00:44:33.037Z,3.60
2022-09-02T00:45:33.122Z,5.20
2022-09-02T00:46:33.048Z,17.80
2022-09-02T00:47:33.127Z,3.40
2022-09-02T00:48:32.999Z,3.80
2022-09-02T00:49:33.008Z,2.60
2022-09-02T00:50:32.987Z,4.00
2022-09-02T00:51:32.967Z,3.90
2022-09-02T00:52:32.937Z,3.30
2022-09-02T00:53:32.967Z,4.50
2022-09-02T00:54:32.974Z,3.00
2022-09-02T00:55:32.914Z,3.30
2022-09-02T00:56:32.884Z,4.00
2022-09-02T00:57:32.897Z,3.00
2022-09-02T00:58:32.875Z,4.60
2022-09-02T00:59:32.959Z,5.70
2022-09-02T01:00:34.733Z,3.50
2022-09-02T01:01:32.942Z,3.00
2022-09-02T01:02:32.807Z,3.60
2022-09-02T01:03:32.797Z,3.20
2022-09-02T01:04:32.794Z,3.30
2022-09-02T01:05:32.791Z,3.50
2022-09-02T01:06:32.771Z,4.10
2022-09-02T01:07:32.738Z,3.40
2022-09-02T01:08:32.752Z,5.00
2022-09-02T01:09:32.801Z,3.50
2022-09-02T01:10:32.720Z,3.00
2022-09-02T01:11:32.721Z,3.00
2022-09-02T01:12:32.670Z,7.60
2022-09-02T01:13:32.671Z,5.40
2022-09-02T01:14:32.659Z,2.90
2022-09-02T01:15:32.649Z,3.30
2022-09-02T01:16:32.645Z,3.80
2022-09-02T01:17:32.802Z,4.80
2022-09-02T01:18:32.613Z,2.80
2022-09-02T01:19:32.668Z,3.30
2022-09-02T01:20:32.612Z,5.10
2022-09-02T01:21:32.568Z,5.10
2022-09-02T01:22:32.528Z,4.20
2022-09-02T01:23:34.768Z,5.90
2022-09-02T01:24:32.514Z,3.60
2022-09-02T01:25:32.539Z,3.30
2022-09-02T01:26:32.497Z,2.80
2022-09-02T01:27:32.488Z,3.70
2022-09-02T01:28:32.540Z,3.70
2022-09-02T01:29:32.461Z,3.40
2022-09-02T01:30:32.439Z,3.40
2022-09-02T01:31:32.485Z,3.00
2022-09-02T01:32:32.410Z,5.20
2022-09-02T01:33:32.395Z,2.60
2022-09-02T01:34:32.388Z,3.30
2022-09-02T01:35:32.387Z,2.90
2022-09-02T01:36:32.379Z,2.90
2022-09-02T01:37:32.354Z,2.90
2022-09-02T01:38:32.324Z,3.60
2022-09-02T01:39:32.313Z,4.10
2022-09-02T01:40:32.370Z,2.60
2022-09-02T01:41:32.277Z,5.10
2022-09-02T01:42:32.276Z,3.60
2022-09-02T01:43:32.290Z,3.80
2022-09-02T01:44:32.247Z,3.70
2022-09-02T01:45:32.218Z,2.50
2022-09-02T01:46:32.253Z,2.80
2022-09-02T01:47:32.207Z,3.40
2022-09-02T01:48:32.196Z,2.60
2022-09-02T01:49:32.526Z,2.70
2022-09-02T01:50:32.177Z,3.10
2022-09-02T01:51:32.178Z,2.80
2022-09-02T01:52:32.158Z,2.60
2022-09-02T01:53:32.108Z,3.30
2022-09-02T01:54:32.106Z,3.20
2022-09-02T01:55:32.141Z,5.30
2022-09-02T01:56:32.179Z,2.90
2022-09-02T01:57:32.057Z,3.20
2022-09-02T01:58:32.087Z,5.00
2022-09-02T01:59:32.055Z,4.20
2022-09-02T02:00:32.084Z,4.90
2022-09-02T02:01:32.115Z,3.10
2022-09-02T02:02:32.020Z,2.60
2022-09-02T02:03:31.991Z,4.10
2022-09-02T02:04:31.982Z,2.80
2022-09-02T02:05:31.974Z,3.50
2022-09-02T02:06:31.949Z,2.80
2022-09-02T02:07:31.949Z,3.20
2022-09-02T02:08:31.919Z,2.70
2022-09-02T02:09:31.889Z,3.10
2022-09-02T02:10:31.939Z,2.80
2022-09-02T02:11:31.867Z,2.60
2022-09-02T02:12:31.869Z,2.90
2022-09-02T02:13:31.866Z,3.70
2022-09-02T02:14:31.852Z,2.90
2022-09-02T02:16:01.944Z,3.90
2022-09-02T02:17:01.776Z,3.50
2022-09-02T02:18:01.733Z,4.10
2022-09-02T02:19:01.746Z,4.60
2022-09-02T02:20:01.698Z,4.60
2022-09-02T02:21:01.766Z,3.90
2022-09-02T02:22:01.685Z,2.80
2022-09-02T02:23:01.655Z,4.40
2022-09-02T02:24:01.642Z,3.50
2022-09-02T02:25:01.656Z,3.50
2022-09-02T02:26:01.608Z,3.70
2022-09-02T02:27:01.587Z,3.20
2022-09-02T02:28:02.598Z,3.20
2022-09-02T02:29:01.594Z,3.70
2022-09-02T02:30:01.557Z,3.70
2022-09-02T02:31:01.628Z,5.70
2022-09-02T02:32:01.531Z,3.20
2022-09-02T02:33:01.517Z,4.60
2022-09-02T02:34:01.516Z,3.80
2022-09-02T02:35:01.507Z,3.80
2022-09-02T02:36:01.553Z,4.30
2022-09-02T02:37:01.531Z,3.40
2022-09-02T02:38:03.877Z,3.70
2022-09-02T02:39:01.438Z,3.40
2022-09-02T02:40:01.443Z,5.10
2022-09-02T02:41:01.396Z,3.90
2022-09-02T02:42:01.396Z,3.90
2022-09-02T02:43:01.425Z,5.40
2022-09-02T02:44:01.376Z,4.50
2022-09-02T02:45:01.369Z,5.40
2022-09-02T02:46:01.376Z,3.50
2022-09-02T02:47:01.392Z,3.80
2022-09-02T02:48:01.317Z,4.30
2022-09-02T02:49:01.368Z,5.40
2022-09-02T02:50:01.286Z,4.90
2022-09-02T02:51:01.294Z,3.90
2022-09-02T02:52:01.256Z,3.40
2022-09-02T02:53:01.246Z,4.20
2022-09-02T02:54:01.255Z,4.20
2022-09-02T02:55:01.238Z,5.70
2022-09-02T02:56:01.206Z,4.70
2022-09-02T02:57:01.202Z,6.20
2022-09-02T02:58:01.219Z,3.30
2022-09-02T02:59:01.208Z,3.90
2022-09-02T03:00:01.154Z,4.40
2022-09-02T03:01:01.168Z,4.10
2022-09-02T03:02:01.279Z,5.60
2022-09-02T03:03:01.173Z,7.30
2022-09-02T03:04:01.089Z,3.50
2022-09-02T03:05:01.085Z,4.60
2022-09-02T03:06:01.072Z,3.90
2022-09-02T03:07:01.077Z,4.50
2022-09-02T03:08:01.036Z,4.40
2022-09-02T03:09:01.038Z,4.30
2022-09-02T03:10:01.016Z,4.10
2022-09-02T03:11:01.007Z,4.00
2022-09-02T03:12:01.008Z,4.10
2022-09-02T03:13:01.022Z,4.50
2022-09-02T03:14:00.956Z,4.60
2022-09-02T03:15:00.958Z,4.70
2022-09-02T03:16:01.009Z,4.30
2022-09-02T03:17:00.925Z,5.60
2022-09-02T03:18:00.905Z,4.00
2022-09-02T03:19:00.934Z,4.00
2022-09-02T03:20:00.891Z,3.70
2022-09-02T03:21:00.874Z,4.30
2022-09-02T03:22:00.839Z,4.50
2022-09-02T03:23:00.847Z,5.40
2022-09-02T03:24:00.828Z,3.90
2022-09-02T03:25:00.856Z,5.20
2022-09-02T03:26:00.802Z,4.00
2022-09-02T03:27:00.811Z,4.80
2022-09-02T03:28:00.792Z,4.40
2022-09-02T03:29:00.745Z,6.80
2022-09-02T03:30:00.740Z,5.40
2022-09-02T03:31:00.772Z,5.80
2022-09-02T03:32:00.718Z,4.50
2022-09-02T03:33:04.127Z,4.70
2022-09-02T03:34:00.673Z,4.60
2022-09-02T03:35:00.666Z,5.00
2022-09-02T03:36:00.696Z,5.20
2022-09-02T03:37:00.650Z,5.40
2022-09-02T03:38:00.625Z,5.30
2022-09-02T03:39:00.596Z,5.20
2022-09-02T03:40:00.607Z,5.30
2022-09-02T03:41:00.577Z,4.30
2022-09-02T03:42:01.048Z,5.10
2022-09-02T03:43:00.827Z,4.80
2022-09-02T03:44:00.557Z,6.10
2022-09-02T03:45:00.521Z,5.30
2022-09-02T03:46:00.591Z,5.60
2022-09-02T03:47:00.503Z,8.30
2022-09-02T03:48:00.516Z,5.60
2022-09-02T03:49:00.505Z,5.10
2022-09-02T03:50:00.446Z,4.70
2022-09-02T03:51:00.453Z,6.00
2022-09-02T03:52:00.446Z,6.40
2022-09-02T03:53:00.451Z,5.90
2022-09-02T03:54:00.666Z,6.60
2022-09-02T03:55:00.406Z,5.00
2022-09-02T03:56:00.384Z,5.10
2022-09-02T03:57:00.354Z,6.10
2022-09-02T03:58:00.380Z,6.90
2022-09-02T03:59:00.379Z,5.50
2022-09-02T04:00:00.356Z,7.00
2022-09-02T04:01:00.391Z,8.60
2022-09-02T04:02:00.510Z,5.60
2022-09-02T04:03:00.387Z,7.40
2022-09-02T04:04:00.276Z,7.70
2022-09-02T04:05:00.255Z,5.30
2022-09-02T04:06:00.302Z,9.20
2022-09-02T04:07:00.227Z,8.70
2022-09-02T04:08:00.215Z,5.70
2022-09-02T04:09:00.200Z,5.60
2022-09-02T04:10:00.193Z,6.00
2022-09-02T04:11:00.196Z,10.10
2022-09-02T04:12:00.186Z,6.90
2022-09-02T04:13:00.175Z,8.00
2022-09-02T04:14:00.167Z,7.90
2022-09-02T04:15:00.143Z,8.30
2022-09-02T04:16:02.098Z,8.60
2022-09-02T04:17:00.103Z,5.90
2022-09-02T04:18:00.111Z,7.80
2022-09-02T04:19:00.097Z,7.30
2022-09-02T04:20:00.045Z,7.10
2022-09-02T04:21:00.029Z,7.00
2022-09-02T04:22:00.019Z,5.90
2022-09-02T04:23:00.010Z,7.60
2022-09-02T04:23:59.987Z,6.10
2022-09-02T04:25:00.138Z,6.90
2022-09-02T04:26:00.128Z,6.90
2022-09-02T04:27:04.097Z,5.60
2022-09-02T04:27:59.988Z,6.00
2022-09-02T04:28:59.996Z,6.00
2022-09-02T04:30:00.029Z,6.40
2022-09-02T04:31:00.047Z,6.40
2022-09-02T04:31:59.911Z,7.40
2022-09-02T04:32:59.920Z,5.90
2022-09-02T04:33:59.912Z,6.00
2022-09-02T04:34:59.859Z,5.20
2022-09-02T04:35:59.838Z,7.80
2022-09-02T04:36:59.887Z,6.70
2022-09-02T04:37:59.826Z,7.10
2022-09-02T04:38:59.815Z,8.70
2022-09-02T04:39:59.777Z,7.30
2022-09-02T04:40:59.772Z,7.00
2022-09-02T04:41:59.775Z,6.80
2022-09-02T04:42:59.757Z,8.80
2022-09-02T04:43:59.722Z,12.00
2022-09-02T04:44:59.716Z,9.10
2022-09-02T04:45:59.697Z,7.00
2022-09-02T04:46:59.675Z,9.40
2022-09-02T04:47:59.697Z,11.90
2022-09-02T04:48:59.667Z,6.30
2022-09-02T04:49:59.632Z,7.10
2022-09-02T04:50:59.687Z,7.30
2022-09-02T04:51:59.606Z,6.90
2022-09-02T04:52:59.594Z,7.50
2022-09-02T04:53:59.585Z,8.20
2022-09-02T04:54:59.608Z,5.70
2022-09-02T04:55:59.547Z,6.50
2022-09-02T04:56:59.536Z,7.40
2022-09-02T04:57:59.549Z,7.50
2022-09-02T04:58:59.524Z,5.60
2022-09-02T04:59:59.487Z,9.10
2022-09-02T05:00:59.553Z,6.20
2022-09-02T05:01:59.646Z,9.40
2022-09-02T05:02:59.534Z,9.50
2022-09-02T05:03:59.511Z,5.90
2022-09-02T05:04:59.445Z,7.50
2022-09-02T05:05:59.406Z,7.30
2022-09-02T05:06:59.476Z,8.10
2022-09-02T05:07:59.378Z,6.80
2022-09-02T05:08:59.389Z,5.40
2022-09-02T05:09:59.408Z,5.80
2022-09-02T05:10:59.358Z,7.70
2022-09-02T05:11:59.326Z,5.20
2022-09-02T05:12:59.346Z,6.70
2022-09-02T05:13:59.424Z,5.90
2022-09-02T05:14:59.306Z,4.60
2022-09-02T05:15:59.390Z,6.80
2022-09-02T05:17:01.796Z,6.50
2022-09-02T05:18:00.325Z,4.50
2022-09-02T05:18:59.248Z,6.40
2022-09-02T05:19:59.226Z,5.70
2022-09-02T05:20:59.279Z,6.40
2022-09-02T05:21:59.191Z,6.40
2022-09-02T05:22:59.219Z,6.20
2022-09-02T05:23:59.164Z,5.40
2022-09-02T05:24:59.157Z,7.60
2022-09-02T05:25:59.156Z,5.90
2022-09-02T05:32:03.191Z,6.80
2022-09-02T05:32:38.522Z,6.90
2022-09-02T05:33:38.512Z,8.40
2022-09-02T05:34:38.512Z,7.10
2022-09-02T05:35:38.544Z,6.80
2022-09-02T05:36:39.462Z,7.10
2022-09-02T05:37:38.505Z,7.20
2022-09-02T05:38:38.499Z,5.80
2022-09-02T05:39:38.434Z,11.50
2022-09-02T05:40:38.511Z,9.90
2022-09-02T05:41:38.408Z,10.70
2022-09-02T05:42:38.436Z,10.40
2022-09-02T05:43:38.404Z,7.30
2022-09-02T05:44:38.389Z,10.20
2022-09-02T05:45:38.414Z,7.50
2022-09-02T05:46:38.315Z,11.00
2022-09-02T05:47:38.359Z,8.40
2022-09-02T05:48:38.318Z,4.70
2022-09-02T05:49:38.315Z,7.60
2022-09-02T05:50:38.308Z,5.80
2022-09-02T05:51:38.254Z,5.80
2022-09-02T05:52:38.233Z,5.00
2022-09-02T05:53:38.234Z,5.00
2022-09-02T05:54:38.212Z,3.50
2022-09-02T05:55:38.203Z,4.50
2022-09-02T05:56:38.215Z,4.70
2022-09-02T05:57:38.225Z,3.70
2022-09-02T05:58:38.165Z,4.50
2022-09-02T05:59:38.185Z,4.30
2022-09-02T06:00:38.174Z,7.00
2022-09-02T06:01:38.167Z,4.60
2022-09-02T06:02:38.214Z,4.20
2022-09-02T06:03:38.095Z,4.60
2022-09-02T06:04:38.103Z,4.20
2022-09-02T06:05:38.104Z,6.20
2022-09-02T06:06:38.086Z,5.80
2022-09-02T06:07:38.055Z,5.60
2022-09-02T06:08:38.070Z,4.90
2022-09-02T06:09:38.036Z,4.00
2022-09-02T06:10:37.999Z,5.40
2022-09-02T06:11:37.985Z,5.10
2022-09-02T06:12:42.381Z,5.70
2022-09-02T06:13:37.974Z,6.60
2022-09-02T06:14:37.983Z,5.00
2022-09-02T06:15:38.027Z,5.20
2022-09-02T06:16:37.939Z,6.60
2022-09-02T06:17:37.907Z,5.20
2022-09-02T06:18:37.927Z,4.70
2022-09-02T06:19:37.904Z,6.60
2022-09-02T06:20:37.888Z,6.40
2022-09-02T06:21:37.887Z,7.20
2022-09-02T06:22:37.846Z,4.50
2022-09-02T06:23:37.827Z,4.90
2022-09-02T06:24:37.848Z,6.90
2022-09-02T06:25:37.807Z,7.60
2022-09-02T06:26:37.807Z,6.50
2022-09-02T06:27:37.820Z,8.50
2022-09-02T06:28:37.750Z,6.40
2022-09-02T06:29:37.747Z,7.30
2022-09-02T06:30:37.794Z,4.80
2022-09-02T06:31:37.736Z,6.80
2022-09-02T06:32:37.743Z,6.40
2022-09-02T06:33:37.689Z,7.90
2022-09-02T06:34:37.673Z,5.60
2022-09-02T06:35:37.676Z,5.90
2022-09-02T06:36:37.646Z,5.70
2022-09-02T06:37:37.638Z,7.30
2022-09-02T06:38:37.673Z,5.60
2022-09-02T06:39:37.615Z,5.80
2022-09-02T06:40:37.738Z,5.40
2022-09-02T06:41:37.647Z,5.80
2022-09-02T06:42:37.589Z,6.90
2022-09-02T06:43:42.223Z,4.90
2022-09-02T06:44:38.586Z,7.10
2022-09-02T06:45:37.529Z,4.60
2022-09-02T06:46:37.605Z,9.20
2022-09-02T06:47:37.510Z,7.30
2022-09-02T06:48:37.516Z,4.50
2022-09-02T06:49:37.465Z,5.90
2022-09-02T06:50:37.448Z,5.90
2022-09-02T06:51:37.489Z,6.60
2022-09-02T06:52:37.439Z,7.60
2022-09-02T06:53:37.429Z,6.20
2022-09-02T06:54:37.399Z,6.50
2022-09-02T06:55:37.398Z,6.90
2022-09-02T06:56:37.386Z,6.90
2022-09-02T06:57:37.401Z,8.10
2022-09-02T06:58:37.440Z,4.80
2022-09-02T06:59:37.372Z,5.40
2022-09-02T07:00:37.379Z,7.80
2022-09-02T07:01:37.473Z,6.10
2022-09-02T07:02:37.281Z,5.90
2022-09-02T07:03:37.317Z,6.60
2022-09-02T07:04:37.387Z,3.90
2022-09-02T07:05:37.279Z,5.10
2022-09-02T07:06:37.241Z,5.70
2022-09-02T07:07:37.210Z,5.30
2022-09-02T07:08:37.213Z,3.90
2022-09-02T07:09:37.232Z,4.20
2022-09-02T07:10:37.173Z,6.50
2022-09-02T07:11:37.165Z,4.10
2022-09-02T07:12:37.141Z,4.40
2022-09-02T07:13:37.130Z,5.00
2022-09-02T07:14:37.119Z,4.00
2022-09-02T07:15:37.130Z,6.00
2022-09-02T07:16:37.156Z,6.30
2022-09-02T07:17:37.099Z,4.40
2022-09-02T07:18:37.071Z,6.30
2022-09-02T07:19:37.051Z,4.10
2022-09-02T07:20:37.033Z,4.40
2022-09-02T07:21:37.061Z,5.90
2022-09-02T07:22:36.999Z,4.90
2022-09-02T07:23:40.560Z,8.10
2022-09-02T07:24:37.021Z,3.40
2022-09-02T07:25:36.992Z,4.30
2022-09-02T07:26:36.953Z,3.80
2022-09-02T07:27:36.978Z,3.60
2022-09-02T07:28:36.920Z,2.60
2022-09-02T07:29:36.924Z,5.50
2022-09-02T07:30:36.948Z,4.00
2022-09-02T07:31:36.910Z,3.50
2022-09-02T07:32:36.888Z,3.50
2022-09-02T07:33:36.874Z,1.90
2022-09-02T07:34:36.860Z,4.50
2022-09-02T07:35:36.918Z,2.40
2022-09-02T07:36:36.850Z,2.40
2022-09-02T07:37:36.811Z,1.90
2022-09-02T07:38:36.805Z,3.80
2022-09-02T07:39:36.781Z,2.10
2022-09-02T07:40:36.802Z,2.10
2022-09-02T07:41:36.767Z,3.40
2022-09-02T07:42:36.740Z,2.90
2022-09-02T07:43:36.721Z,2.70
2022-09-02T07:44:36.712Z,4.50
2022-09-02T07:45:36.762Z,3.80
2022-09-02T07:46:36.725Z,2.80
2022-09-02T07:47:36.799Z,2.20
2022-09-02T07:48:36.658Z,2.30
2022-09-02T07:50:37.669Z,2.30
2022-09-02T07:51:36.615Z,3.00
2022-09-02T07:52:36.651Z,1.60
2022-09-02T07:53:36.592Z,2.60
2022-09-02T07:54:36.592Z,1.80
2022-09-02T07:55:36.563Z,2.00
2022-09-02T07:56:36.542Z,2.20
2022-09-02T07:57:36.534Z,1.30
2022-09-02T07:58:36.603Z,1.60
2022-09-02T07:59:36.549Z,2.90
2022-09-02T08:00:36.492Z,3.00
2022-09-02T08:01:36.645Z,2.10
2022-09-02T08:02:36.527Z,1.50
2022-09-02T08:03:36.451Z,1.90
2022-09-02T08:04:36.459Z,3.30
2022-09-02T08:05:36.541Z,1.60
2022-09-02T08:06:36.412Z,2.40
2022-09-02T08:07:36.431Z,1.90
2022-09-02T08:08:36.382Z,1.40
2022-09-02T08:09:36.414Z,3.00
2022-09-02T08:10:36.342Z,1.10
2022-09-02T08:11:36.355Z,2.00
2022-09-02T08:12:36.342Z,2.20
2022-09-02T08:13:36.336Z,1.00
2022-09-02T08:14:36.324Z,2.00
2022-09-02T08:15:36.293Z,2.80
2022-09-02T08:16:36.344Z,2.60
2022-09-02T08:17:36.294Z,0.70
2022-09-02T08:18:36.252Z,2.80
2022-09-02T08:19:36.317Z,1.60
2022-09-02T08:20:36.224Z,1.80
2022-09-02T08:21:36.261Z,3.70
2022-09-02T08:22:36.221Z,2.50
2022-09-02T08:23:37.530Z,1.10
2022-09-02T08:24:36.183Z,1.10
2022-09-02T08:25:36.165Z,1.10
2022-09-02T08:26:36.144Z,1.10
2022-09-02T08:27:36.137Z,1.60
2022-09-02T08:28:36.196Z,2.60
2022-09-02T08:29:36.137Z,2.70
2022-09-02T08:30:36.084Z,3.00
2022-09-02T08:31:36.120Z,2.60
2022-09-02T08:32:36.085Z,1.80
2022-09-02T08:33:36.057Z,2.70
2022-09-02T08:34:36.101Z,1.50
2022-09-02T08:35:50.634Z,2.80
2022-09-02T08:36:47.573Z,1.40
2022-09-02T08:37:37.004Z,0.60
2022-09-02T08:38:35.993Z,0.70
2022-09-02T08:39:36.000Z,1.00
2022-09-02T08:40:36.006Z,1.00
2022-09-02T08:41:35.994Z,3.20
2022-09-02T08:42:35.975Z,1.50
2022-09-02T08:43:35.927Z,1.60
2022-09-02T08:44:35.909Z,2.20
2022-09-02T08:45:35.910Z,0.90
2022-09-02T08:46:35.907Z,0.90
2022-09-02T08:47:35.920Z,1.70
2022-09-02T08:48:35.867Z,0.40
2022-09-02T08:49:35.865Z,0.60
2022-09-02T08:50:35.807Z,0.90
2022-09-02T08:51:37.585Z,0.90
2022-09-02T08:52:35.776Z,0.90
2022-09-02T08:53:35.808Z,2.30
2022-09-02T08:54:35.776Z,1.10
2022-09-02T08:55:35.750Z,7.40
2022-09-02T08:56:35.727Z,1.70
2022-09-02T08:57:35.753Z,1.30
2022-09-02T08:58:36.706Z,2.70
2022-09-02T08:59:35.739Z,0.70
2022-09-02T09:00:35.702Z,1.60
2022-09-02T09:01:35.732Z,1.60
2022-09-02T09:02:35.801Z,2.80
2022-09-02T09:03:35.647Z,1.30
2022-09-02T09:04:35.633Z,1.30
2022-09-02T09:05:35.608Z,0.80
2022-09-02T09:06:35.609Z,1.50
2022-09-02T09:08:35.561Z,1.00
2022-09-02T09:09:35.547Z,2.70
2022-09-02T09:10:35.538Z,1.10
2022-09-02T09:11:35.518Z,0.40
2022-09-02T09:12:35.524Z,0.80
2022-09-02T09:13:38.294Z,0.80
2022-09-02T09:14:36.476Z,0.80
2022-09-02T09:15:35.473Z,1.30
2022-09-02T09:16:35.547Z,2.10
2022-09-02T09:17:35.439Z,0.90
2022-09-02T09:18:35.418Z,1.80
2022-09-02T09:19:35.453Z,0.90
2022-09-02T09:20:35.489Z,2.60
2022-09-02T09:21:35.436Z,1.40
2022-09-02T09:22:35.369Z,0.50
2022-09-02T09:23:35.368Z,0.60
2022-09-02T09:24:35.378Z,0.50
2022-09-02T09:25:35.389Z,1.00
2022-09-02T09:26:35.319Z,0.80
2022-09-02T09:27:35.321Z,3.60
2022-09-02T09:28:35.280Z,0.40
2022-09-02T09:29:35.278Z,1.60
2022-09-02T09:30:35.277Z,2.30
2022-09-02T09:31:35.332Z,1.10
2022-09-02T09:32:35.240Z,1.90
2022-09-02T09:33:35.267Z,1.60
2022-09-02T09:34:35.219Z,1.20
2022-09-02T09:35:35.249Z,0.50
2022-09-02T09:36:35.180Z,1.50
2022-09-02T09:37:36.309Z,0.60
2022-09-02T09:38:35.300Z,0.70
2022-09-02T09:39:35.182Z,1.30
2022-09-02T09:40:35.233Z,1.00
2022-09-02T09:41:35.153Z,0.90
2022-09-02T09:42:35.115Z,0.90
2022-09-02T09:43:35.158Z,0.60
2022-09-02T09:44:35.080Z,0.60
2022-09-02T09:45:35.622Z,0.60
2022-09-02T09:46:35.133Z,1.30
2022-09-02T09:47:35.063Z,0.70
2022-09-02T09:48:35.040Z,4.70
2022-09-02T09:49:35.070Z,2.10
2022-09-02T09:50:35.014Z,2.50
2022-09-02T09:51:49.802Z,0.70
2022-09-02T09:52:36.046Z,0.60
2022-09-02T09:53:34.970Z,0.80
2022-09-02T09:54:35.020Z,0.70
2022-09-02T09:55:38.072Z,0.90
2022-09-02T09:56:37.426Z,2.00
2022-09-02T09:57:35.603Z,1.50
2022-09-02T09:58:34.911Z,0.70
2022-09-02T09:59:34.891Z,0.80
2022-09-02T10:01:38.598Z,0.60
2022-09-02T10:02:38.622Z,0.70
2022-09-02T10:03:39.961Z,0.50
2022-09-02T10:04:45.670Z,3.60
2022-09-02T10:05:39.455Z,1.40
2022-09-02T10:06:38.480Z,0.70
2022-09-02T10:07:38.479Z,1.50
2022-09-02T10:08:38.530Z,1.30
2022-09-02T10:09:38.417Z,1.40
2022-09-02T10:10:38.388Z,1.20
2022-09-02T10:11:46.560Z,0.60
2022-09-02T10:12:39.408Z,1.30
2022-09-02T10:13:38.348Z,1.40
2022-09-02T10:14:38.368Z,0.60
2022-09-02T10:15:38.430Z,1.40
2022-09-02T10:16:38.441Z,2.70
2022-09-02T10:17:38.386Z,1.10
2022-09-02T10:18:38.334Z,1.20
2022-09-02T10:19:38.265Z,1.40
2022-09-02T10:20:44.598Z,1.00
2022-09-02T10:21:41.981Z,2.30
2022-09-02T10:22:58.911Z,0.80
2022-09-02T10:23:39.267Z,1.80
2022-09-02T10:24:47.980Z,1.00
2022-09-02T10:25:38.189Z,2.40
2022-09-02T10:26:38.186Z,0.80
2022-09-02T10:27:38.157Z,1.00
2022-09-02T10:28:38.178Z,1.30
2022-09-02T10:29:38.173Z,2.00
2022-09-02T10:30:38.121Z,0.40
2022-09-02T10:31:38.219Z,2.20
2022-09-02T10:32:38.129Z,1.90
2022-09-02T10:33:38.113Z,1.80
2022-09-02T10:34:38.160Z,0.70
2022-09-02T10:35:38.126Z,0.50
2022-09-02T10:36:38.089Z,1.20
2022-09-02T10:37:38.064Z,0.70
2022-09-02T10:38:38.019Z,0.80
2022-09-02T10:39:38.018Z,0.60
2022-09-02T10:40:38.023Z,1.30
2022-09-02T10:41:38.149Z,0.70
2022-09-02T10:42:39.028Z,1.20
2022-09-02T10:43:37.972Z,1.20
2022-09-02T10:44:37.988Z,2.30
2022-09-02T10:45:37.977Z,1.30
2022-09-02T10:46:37.940Z,1.50
2022-09-02T10:47:37.905Z,0.60
2022-09-02T10:48:37.924Z,0.90
2022-09-02T10:49:37.887Z,1.60
2022-09-02T10:50:37.883Z,1.50
2022-09-02T10:51:37.875Z,0.40
2022-09-02T10:52:37.889Z,0.50
2022-09-02T10:53:37.818Z,0.30
2022-09-02T10:54:37.847Z,0.40
2022-09-02T10:55:37.815Z,1.30
2022-09-02T10:56:37.800Z,0.80
2022-09-02T10:57:37.779Z,1.30
2022-09-02T10:58:56.587Z,0.80
2022-09-02T10:59:38.911Z,0.70
2022-09-02T11:00:37.903Z,1.60
2022-09-02T11:01:37.859Z,0.70
2022-09-02T11:02:37.703Z,0.40
2022-09-02T11:03:37.738Z,0.90
2022-09-02T11:04:37.872Z,0.80
2022-09-02T11:05:37.803Z,0.60
2022-09-02T11:06:52.042Z,0.80
2022-09-02T11:07:38.631Z,0.40
2022-09-02T11:08:37.691Z,1.00
2022-09-02T11:09:37.621Z,0.80
2022-09-02T11:10:37.594Z,0.40
2022-09-02T11:12:00.399Z,1.00
2022-09-02T11:12:37.585Z,0.80
2022-09-02T11:13:37.583Z,2.30
2022-09-02T11:14:37.602Z,0.50
2022-09-02T11:15:37.542Z,2.00
2022-09-02T11:17:37.523Z,0.70
2022-09-02T11:18:37.511Z,1.00
2022-09-02T11:19:37.485Z,0.30
2022-09-02T11:20:37.473Z,0.30
2022-09-02T11:22:01.591Z,1.10
2022-09-02T11:22:38.469Z,0.70
2022-09-02T11:23:37.394Z,1.80
2022-09-02T11:24:37.418Z,1.20
2022-09-02T11:25:37.393Z,1.00
2022-09-02T11:26:37.361Z,2.00
2022-09-02T11:27:44.613Z,2.20
2022-09-02T11:28:38.370Z,1.70
2022-09-02T11:29:37.325Z,0.70
2022-09-02T11:30:37.356Z,0.60
2022-09-02T11:31:39.240Z,3.70
2022-09-02T11:32:37.418Z,0.70
2022-09-02T11:33:37.297Z,2.50
2022-09-02T11:34:37.288Z,1.50
2022-09-02T11:35:37.267Z,0.90
2022-09-02T11:36:37.247Z,2.30
2022-09-02T11:37:37.222Z,2.40
2022-09-02T11:38:37.185Z,1.30
2022-09-02T11:39:53.961Z,1.30
2022-09-02T11:40:39.069Z,1.90
2022-09-02T11:41:37.900Z,2.30
2022-09-02T11:42:37.177Z,1.80
2022-09-02T11:43:42.748Z,1.00
2022-09-02T11:44:37.221Z,2.50
2022-09-02T11:45:37.336Z,0.60
2022-09-02T11:46:37.167Z,1.20
2022-09-02T11:47:37.791Z,0.30
2022-09-02T11:48:38.172Z,0.90
2022-09-02T11:49:37.094Z,1.60
2022-09-02T11:50:39.202Z,1.10
2022-09-02T11:51:37.019Z,0.90
2022-09-02T11:52:37.043Z,2.80
2022-09-02T11:53:37.027Z,0.50
2022-09-02T11:54:37.005Z,1.90
2022-09-02T11:55:36.981Z,1.30
2022-09-02T11:56:37.112Z,1.30
2022-09-02T11:57:36.938Z,0.70
2022-09-02T11:58:36.926Z,0.60
2022-09-02T11:59:36.960Z,0.70
2022-09-02T12:01:03.156Z,0.60
2022-09-02T12:01:36.938Z,0.70
2022-09-02T12:02:37.876Z,0.20
2022-09-02T12:03:50.132Z,3.60
2022-09-02T12:04:59.271Z,0.80
2022-09-02T12:05:38.205Z,0.90
2022-09-02T12:06:36.946Z,1.50
2022-09-02T12:07:36.856Z,2.00
2022-09-02T12:08:36.828Z,3.30
2022-09-02T12:09:36.789Z,2.80
2022-09-02T12:10:36.788Z,1.60
2022-09-02T12:11:36.808Z,2.50
2022-09-02T12:12:36.853Z,0.80
2022-09-02T12:13:36.793Z,1.10
2022-09-02T12:14:36.776Z,0.20
2022-09-02T12:15:37.017Z,1.60
2022-09-02T12:16:36.808Z,0.80
2022-09-02T12:18:46.603Z,0.90
2022-09-02T12:19:46.552Z,0.70
2022-09-02T12:20:51.118Z,0.40
2022-09-02T12:21:47.574Z,1.30
2022-09-02T12:22:46.521Z,1.30
2022-09-02T12:23:46.465Z,1.00
2022-09-02T12:24:46.502Z,1.30
2022-09-02T12:25:46.489Z,0.60
2022-09-02T12:26:46.581Z,0.20
2022-09-02T12:27:46.422Z,1.40
2022-09-02T12:28:46.452Z,1.10
2022-09-02T12:29:46.558Z,1.20
2022-09-02T12:30:46.487Z,0.80
2022-09-02T12:31:46.482Z,1.10
2022-09-02T12:32:46.353Z,0.60
2022-09-02T12:33:46.391Z,1.40
2022-09-02T12:34:46.423Z,0.30
2022-09-02T12:35:46.439Z,2.10
2022-09-02T12:36:46.331Z,1.30
2022-09-02T12:37:46.383Z,1.50
2022-09-02T12:38:46.320Z,1.00
2022-09-02T12:39:46.295Z,2.20
2022-09-02T12:40:46.424Z,1.80
2022-09-02T12:41:46.528Z,1.00
2022-09-02T12:42:46.712Z,1.60
2022-09-02T12:43:46.220Z,0.60
2022-09-02T12:44:46.212Z,0.80
2022-09-02T12:45:46.226Z,1.70
2022-09-02T12:46:46.217Z,2.70
2022-09-02T12:47:46.210Z,1.30
2022-09-02T12:48:46.144Z,2.10
2022-09-02T12:49:46.230Z,1.60
2022-09-02T12:50:46.141Z,0.90
2022-09-02T12:51:46.152Z,1.00
2022-09-02T12:52:46.174Z,1.50
2022-09-02T12:53:46.166Z,1.40
2022-09-02T12:54:46.155Z,2.40
2022-09-02T12:56:56.104Z,0.70
2022-09-02T12:57:55.952Z,0.80
2022-09-02T12:59:00.217Z,2.30
2022-09-02T12:59:56.952Z,2.10
2022-09-02T13:00:55.951Z,1.30
2022-09-02T13:02:00.968Z,1.40
2022-09-02T13:02:55.902Z,1.30
2022-09-02T13:03:56.016Z,1.60
2022-09-02T13:04:55.862Z,1.40
2022-09-02T13:05:55.894Z,0.50
2022-09-02T13:06:55.783Z,1.00
2022-09-02T13:09:07.928Z,0.50
2022-09-02T13:10:07.800Z,0.90
2022-09-02T13:11:08.031Z,0.60
2022-09-02T13:12:07.808Z,0.50
2022-09-02T13:13:07.853Z,0.60
2022-09-02T13:14:07.782Z,2.60
2022-09-02T13:15:07.712Z,1.00
2022-09-02T13:16:07.827Z,0.50
2022-09-02T13:17:25.868Z,1.10
2022-09-02T13:18:08.700Z,1.10
2022-09-02T13:19:07.669Z,1.10
2022-09-02T13:20:07.672Z,1.00
2022-09-02T13:21:07.651Z,2.20
2022-09-02T13:22:07.631Z,1.70
2022-09-02T13:23:07.651Z,1.10
2022-09-02T13:24:29.133Z,0.70
2022-09-02T13:25:07.717Z,0.80
2022-09-02T13:26:08.622Z,0.80
2022-09-02T13:27:11.505Z,1.60
2022-09-02T13:28:07.564Z,1.40
2022-09-02T13:29:07.552Z,0.70
2022-09-02T13:30:07.569Z,0.60
2022-09-02T13:31:07.597Z,0.70